createdAt,value
2018-11-22T00:00:29.436Z,101529.30
2018-11-22T00:02:58.428Z,101532.47
2018-11-22T00:05:42.494Z,101531.14
2018-11-22T00:08:07.583Z,101529.23
2018-11-22T00:10:51.630Z,101533.44
2018-11-22T00:13:16.741Z,101537.57
2018-11-22T00:15:41.829Z,101534.96
2018-11-22T00:18:07.055Z,101530.88
2018-11-22T00:20:51.176Z,101534.39
2018-11-22T00:23:35.237Z,101524.20
2018-11-22T00:26:00.466Z,101538.61
2018-11-22T00:28:25.552Z,101536.03
2018-11-22T00:30:50.626Z,101532.93
2018-11-22T00:33:15.732Z,101532.82
2018-11-22T00:35:40.841Z,101528.25
2018-11-22T00:38:05.919Z,101521.69
2018-11-22T00:40:30.986Z,101525.95
2018-11-22T00:43:15.036Z,101522.98
2018-11-22T00:45:40.132Z,101535.02
2018-11-22T00:48:05.271Z,101533.42
2018-11-22T00:50:30.344Z,101540.88
2018-11-22T00:52:55.498Z,101534.19
2018-11-22T00:55:22.148Z,101531.14
2018-11-22T00:57:47.930Z,101534.06
2018-11-22T01:00:32.038Z,101533.96
2018-11-22T01:05:33.798Z,101536.23
2018-11-22T01:08:17.830Z,101537.27
2018-11-22T01:10:42.955Z,101536.41
2018-11-22T01:13:08.033Z,101540.09
2018-11-22T01:15:33.119Z,101537.28
2018-11-22T01:17:58.204Z,101539.27
2018-11-22T01:20:24.560Z,101538.28
2018-11-22T01:22:50.422Z,101536.29
2018-11-22T01:25:16.525Z,101537.36
2018-11-22T01:28:00.565Z,101537.95
2018-11-22T01:30:26.485Z,101535.53
2018-11-22T01:32:52.577Z,101533.64
2018-11-22T01:35:18.572Z,101528.34
2018-11-22T01:37:43.891Z,101533.97
2018-11-22T01:40:11.318Z,101538.77
2018-11-22T01:42:36.493Z,101528.37
2018-11-22T01:45:01.794Z,101533.86
2018-11-22T01:47:26.849Z,101529.95
2018-11-22T01:52:47.569Z,101526.80
2018-11-22T01:55:14.309Z,101522.70
2018-11-22T01:57:39.792Z,101524.35
2018-11-22T02:00:05.089Z,101528.77
2018-11-22T02:02:30.222Z,101524.32
2018-11-22T02:04:55.326Z,101521.80
2018-11-22T02:07:20.438Z,101518.86
2018-11-22T02:09:45.531Z,101522.88
2018-11-22T02:12:10.652Z,101522.91
2018-11-22T02:14:35.716Z,101516.19
2018-11-22T02:17:00.856Z,101517.28
2018-11-22T02:19:26.009Z,101516.38
2018-11-22T02:21:51.117Z,101514.62
2018-11-22T02:24:16.238Z,101512.27
2018-11-22T02:27:00.410Z,101513.62
2018-11-22T02:29:25.503Z,101506.33
2018-11-22T02:31:50.601Z,101505.47
2018-11-22T02:34:15.726Z,101503.48
2018-11-22T02:36:59.799Z,101500.51
2018-11-22T02:39:24.915Z,101504.36
2018-11-22T02:41:49.982Z,101499.45
2018-11-22T02:44:15.092Z,101508.37
2018-11-22T02:46:40.223Z,101506.88
2018-11-22T02:49:05.487Z,101502.23
2018-11-22T02:51:30.620Z,101506.88
2018-11-22T02:53:55.755Z,101504.86
2018-11-22T02:56:20.868Z,101507.98
2018-11-22T02:58:45.939Z,101506.55
2018-11-22T03:01:11.019Z,101507.50
2018-11-22T03:03:55.048Z,101504.14
2018-11-22T03:06:39.116Z,101506.84
2018-11-22T03:09:16.090Z,101498.33
2018-11-22T03:11:41.552Z,101500.20
2018-11-22T03:14:06.728Z,101499.31
2018-11-22T03:16:31.835Z,101504.04
2018-11-22T03:18:56.943Z,101496.12
2018-11-22T03:21:22.046Z,101490.67
2018-11-22T03:23:47.128Z,101496.84
2018-11-22T03:28:48.875Z,101493.34
2018-11-22T03:31:14.166Z,101490.78
2018-11-22T03:33:39.247Z,101490.40
2018-11-22T03:36:04.343Z,101492.42
2018-11-22T03:38:29.497Z,101490.52
2018-11-22T03:40:54.550Z,101488.58
2018-11-22T03:43:38.380Z,101489.22
2018-11-22T03:46:03.577Z,101491.13
2018-11-22T03:48:28.679Z,101490.93
2018-11-22T03:50:53.825Z,101494.83
2018-11-22T03:53:18.920Z,101494.86
2018-11-22T03:55:44.131Z,101488.65
2018-11-22T03:58:09.197Z,101487.96
2018-11-22T04:00:34.288Z,101490.67
2018-11-22T04:02:59.346Z,101491.89
2018-11-22T04:05:25.498Z,101491.55
2018-11-22T04:07:50.578Z,101497.91
2018-11-22T04:10:20.218Z,101495.44
2018-11-22T04:12:45.311Z,101493.03
2018-11-22T04:15:11.335Z,101491.09
2018-11-22T04:17:36.537Z,101491.92
2018-11-22T04:20:01.642Z,101490.55
2018-11-22T04:22:26.765Z,101487.70
2018-11-22T04:24:51.850Z,101490.91
2018-11-22T04:27:16.993Z,101494.86
2018-11-22T04:29:42.080Z,101495.28
2018-11-22T04:32:07.304Z,101496.12
2018-11-22T04:34:32.455Z,101497.64
2018-11-22T04:36:57.577Z,101496.16
2018-11-22T04:39:22.726Z,101500.36
2018-11-22T04:42:06.777Z,101499.59
2018-11-22T04:44:50.877Z,101491.36
2018-11-22T04:47:15.973Z,101496.84
2018-11-22T04:49:41.175Z,101495.89
2018-11-22T04:52:06.446Z,101493.91
2018-11-22T04:54:31.574Z,101489.53
2018-11-22T04:56:56.707Z,101489.64
2018-11-22T04:59:21.831Z,101490.93
2018-11-22T05:04:30.610Z,101489.53
2018-11-22T05:06:51.422Z,101491.73
2018-11-22T05:09:16.535Z,101490.67
2018-11-22T05:11:41.666Z,101492.16
2018-11-22T05:14:06.972Z,101488.53
2018-11-22T05:16:32.128Z,101490.89
2018-11-22T05:18:57.242Z,101484.96
2018-11-22T05:21:41.287Z,101488.64
2018-11-22T05:24:18.247Z,101488.69
2018-11-22T05:26:43.284Z,101484.48
2018-11-22T05:29:12.476Z,101484.33
2018-11-22T05:31:33.534Z,101484.48
2018-11-22T05:33:58.618Z,101484.59
2018-11-22T05:36:23.772Z,101484.80
2018-11-22T05:38:48.894Z,101482.69
2018-11-22T05:41:13.998Z,101481.94
2018-11-22T05:43:39.094Z,101478.67
2018-11-22T05:46:04.189Z,101477.80
2018-11-22T05:48:29.229Z,101481.77
2018-11-22T05:50:54.342Z,101479.33
2018-11-22T05:53:19.406Z,101484.64
2018-11-22T05:56:03.470Z,101483.42
2018-11-22T05:58:28.536Z,101489.36
2018-11-22T06:00:53.647Z,101487.66
2018-11-22T06:03:18.722Z,101487.77
2018-11-22T06:05:43.958Z,101482.69
2018-11-22T06:08:09.035Z,101488.06
2018-11-22T06:10:35.455Z,101485.31
2018-11-22T06:13:08.319Z,101486.32
2018-11-22T06:15:33.419Z,101495.28
2018-11-22T06:18:17.484Z,101493.48
2018-11-22T06:20:42.713Z,101496.20
2018-11-22T06:23:07.801Z,101486.46
2018-11-22T06:25:32.865Z,101491.66
2018-11-22T06:27:58.456Z,101494.94
2018-11-22T06:30:24.911Z,101495.86
2018-11-22T06:32:51.464Z,101492.38
2018-11-22T06:35:16.612Z,101493.33
2018-11-22T06:37:41.747Z,101496.92
2018-11-22T06:40:07.890Z,101487.77
2018-11-22T06:42:32.989Z,101488.00
2018-11-22T06:44:58.124Z,101491.61
2018-11-22T06:47:23.981Z,101501.58
2018-11-22T06:49:49.050Z,101497.69
2018-11-22T06:52:14.170Z,101493.84
2018-11-22T06:57:34.839Z,101506.03
2018-11-22T07:00:37.545Z,101503.72
2018-11-22T07:03:04.472Z,101508.26
2018-11-22T07:05:29.528Z,101511.67
2018-11-22T07:07:54.816Z,101512.64
2018-11-22T07:10:20.155Z,101515.58
2018-11-22T07:12:45.511Z,101519.59
2018-11-22T07:15:11.193Z,101512.49
2018-11-22T07:17:36.713Z,101510.43
2018-11-22T07:20:14.926Z,101516.50
2018-11-22T07:22:39.991Z,101516.19
2018-11-22T07:25:05.278Z,101519.05
2018-11-22T07:27:30.376Z,101521.31
2018-11-22T07:29:55.482Z,101521.30
2018-11-22T07:32:20.584Z,101517.65
2018-11-22T07:34:45.742Z,101515.02
2018-11-22T07:37:10.831Z,101514.44
2018-11-22T07:39:35.979Z,101512.27
2018-11-22T07:42:01.021Z,101510.70
2018-11-22T07:44:26.199Z,101516.69
2018-11-22T07:46:51.321Z,101511.00
2018-11-22T07:49:16.423Z,101513.98
2018-11-22T07:51:41.539Z,101516.62
2018-11-22T07:54:06.908Z,101507.38
2018-11-22T07:56:32.030Z,101515.20
2018-11-22T07:58:57.191Z,101522.34
2018-11-22T08:01:22.615Z,101520.20
2018-11-22T08:03:47.702Z,101519.97
2018-11-22T08:06:12.768Z,101522.98
2018-11-22T08:08:37.831Z,101518.48
2018-11-22T08:11:21.854Z,101520.84
2018-11-22T08:13:46.932Z,101526.48
2018-11-22T08:16:12.024Z,101527.70
2018-11-22T08:18:37.121Z,101528.70
2018-11-22T08:21:04.848Z,101526.77
2018-11-22T08:23:27.315Z,101532.52
2018-11-22T08:25:52.465Z,101535.11
2018-11-22T08:28:17.589Z,101537.50
2018-11-22T08:30:42.704Z,101531.83
2018-11-22T08:33:07.810Z,101536.85
2018-11-22T08:35:32.913Z,101537.39
2018-11-22T08:37:58.013Z,101536.17
2018-11-22T08:40:24.592Z,101535.57
2018-11-22T08:42:55.114Z,101538.70
2018-11-22T08:45:16.142Z,101535.55
2018-11-22T08:47:41.209Z,101533.22
2018-11-22T08:50:08.229Z,101540.48
2018-11-22T08:52:33.409Z,101544.37
2018-11-22T08:54:59.301Z,101544.37
2018-11-22T08:57:24.500Z,101540.16
2018-11-22T08:59:49.662Z,101542.02
2018-11-22T09:02:14.800Z,101550.48
2018-11-22T09:04:39.929Z,101552.08
2018-11-22T09:07:04.989Z,101550.53
2018-11-22T09:09:30.071Z,101552.81
2018-11-22T09:11:55.219Z,101545.09
2018-11-22T09:14:20.315Z,101542.22
2018-11-22T09:16:45.372Z,101551.66
2018-11-22T09:19:10.505Z,101550.70
2018-11-22T09:21:35.584Z,101553.81
2018-11-22T09:24:00.705Z,101544.55
2018-11-22T09:26:26.014Z,101546.47
2018-11-22T09:28:51.167Z,101554.19
2018-11-22T09:31:16.195Z,101547.84
2018-11-22T09:34:00.255Z,101545.91
2018-11-22T09:36:25.359Z,101538.55
2018-11-22T09:38:50.438Z,101544.09
2018-11-22T09:41:18.309Z,101542.24
2018-11-22T09:46:40.444Z,101540.44
2018-11-22T09:49:05.627Z,101538.33
2018-11-22T09:51:49.784Z,101541.49
2018-11-22T09:54:14.931Z,101538.32
2018-11-22T09:56:40.055Z,101540.75
2018-11-22T09:59:05.228Z,101539.08
2018-11-22T10:01:30.322Z,101539.29
2018-11-22T10:03:55.357Z,101534.62
2018-11-22T10:06:20.494Z,101538.17
2018-11-22T10:08:45.580Z,101537.38
2018-11-22T10:11:10.704Z,101535.69
2018-11-22T10:13:54.809Z,101536.48
2018-11-22T10:16:19.852Z,101539.39
2018-11-22T10:18:45.091Z,101542.24
2018-11-22T10:21:10.046Z,101534.09
2018-11-22T10:23:35.118Z,101536.62
2018-11-22T10:26:00.223Z,101545.31
2018-11-22T10:28:25.287Z,101542.34
2018-11-22T10:30:50.438Z,101537.96
2018-11-22T10:33:15.510Z,101538.92
2018-11-22T10:35:40.557Z,101537.92
2018-11-22T10:38:06.008Z,101533.77
2018-11-22T10:40:31.045Z,101537.34
2018-11-22T10:43:14.919Z,101533.99
2018-11-22T10:45:39.981Z,101534.73
2018-11-22T10:48:07.177Z,101530.91
2018-11-22T10:50:33.528Z,101537.47
2018-11-22T10:52:58.629Z,101531.42
2018-11-22T10:55:24.947Z,101529.23
2018-11-22T10:57:53.894Z,101527.85
2018-11-22T11:00:36.370Z,101527.34
2018-11-22T11:03:20.185Z,101521.52
2018-11-22T11:06:03.920Z,101529.03
2018-11-22T11:08:30.126Z,101526.88
2018-11-22T11:10:55.561Z,101519.38
2018-11-22T11:13:20.803Z,101522.62
2018-11-22T11:15:45.901Z,101521.33
2018-11-22T11:18:11.265Z,101518.41
2018-11-22T11:23:12.874Z,101514.16
2018-11-22T11:25:37.971Z,101514.47
2018-11-22T11:28:03.170Z,101517.80
2018-11-22T11:30:28.279Z,101517.11
2018-11-22T11:32:53.397Z,101515.89
2018-11-22T11:35:19.845Z,101513.20
2018-11-22T11:37:44.928Z,101512.41
2018-11-22T11:40:24.260Z,101520.27
2018-11-22T11:42:50.543Z,101515.82
2018-11-22T11:45:15.728Z,101516.29
2018-11-22T11:47:40.853Z,101508.86
2018-11-22T11:50:26.164Z,101509.78
2018-11-22T11:52:51.292Z,101507.06
2018-11-22T11:55:17.938Z,101504.89
2018-11-22T11:57:43.480Z,101507.45
2018-11-22T12:00:48.224Z,101505.61
2018-11-22T12:03:13.419Z,101500.77
2018-11-22T12:05:38.494Z,101503.19
2018-11-22T12:08:03.621Z,101499.05
2018-11-22T12:10:47.659Z,101493.55
2018-11-22T12:13:31.726Z,101493.50
2018-11-22T12:16:15.778Z,101491.27
2018-11-22T12:18:59.908Z,101491.89
2018-11-22T12:21:25.001Z,101484.94
2018-11-22T12:26:45.352Z,101484.41
2018-11-22T12:29:10.437Z,101482.38
2018-11-22T12:31:35.514Z,101481.88
2018-11-22T12:34:20.282Z,101476.98
2018-11-22T12:37:03.060Z,101477.42
2018-11-22T12:39:28.140Z,101485.88
2018-11-22T12:41:53.234Z,101484.47
2018-11-22T12:44:18.347Z,101471.48
2018-11-22T12:46:43.401Z,101471.20
2018-11-22T12:49:08.495Z,101473.89
2018-11-22T12:51:33.592Z,101467.34
2018-11-22T12:53:58.707Z,101473.84
2018-11-22T12:56:23.825Z,101477.53
2018-11-22T12:59:07.855Z,101469.66
2018-11-22T13:01:33.001Z,101470.47
2018-11-22T13:03:58.063Z,101471.45
2018-11-22T13:06:23.137Z,101466.11
2018-11-22T13:09:07.210Z,101469.02
2018-11-22T13:11:32.291Z,101473.55
2018-11-22T13:13:57.381Z,101468.61
2018-11-22T13:16:22.455Z,101475.22
2018-11-22T13:18:59.590Z,101474.06
2018-11-22T13:21:24.373Z,101468.27
2018-11-22T13:23:49.471Z,101471.58
2018-11-22T13:26:14.626Z,101470.03
2018-11-22T13:28:39.678Z,101472.27
2018-11-22T13:31:04.825Z,101471.04
2018-11-22T13:33:30.493Z,101469.91
2018-11-22T13:35:55.587Z,101481.95
2018-11-22T13:38:20.671Z,101474.45
2018-11-22T13:45:59.456Z,101483.28
2018-11-22T13:48:24.537Z,101476.38
2018-11-22T13:50:49.667Z,101479.30
2018-11-22T13:53:20.248Z,101470.80
2018-11-22T13:55:39.894Z,101474.78
2018-11-22T13:58:04.996Z,101474.30
2018-11-22T14:00:31.406Z,101473.41
2018-11-22T14:02:57.918Z,101472.17
2018-11-22T14:05:22.980Z,101464.90
2018-11-22T14:07:48.079Z,101466.61
2018-11-22T14:10:32.355Z,101469.33
2018-11-22T14:13:16.420Z,101461.52
2018-11-22T14:15:41.474Z,101459.01
2018-11-22T14:18:07.176Z,101463.14
2018-11-22T14:20:33.694Z,101458.36
2018-11-22T14:22:58.756Z,101460.13
2018-11-22T14:25:23.868Z,101461.10
2018-11-22T14:27:49.998Z,101464.52
2018-11-22T14:30:16.417Z,101461.24
2018-11-22T14:32:42.255Z,101465.53
2018-11-22T14:35:08.476Z,101467.08
2018-11-22T14:37:33.589Z,101463.44
2018-11-22T14:40:27.885Z,101464.18
2018-11-22T14:43:11.944Z,101463.27
2018-11-22T14:45:37.043Z,101471.48
2018-11-22T14:48:03.216Z,101465.97
2018-11-22T14:50:51.741Z,101466.97
2018-11-22T14:53:18.571Z,101468.53
2018-11-22T14:55:43.699Z,101469.72
2018-11-22T14:58:09.440Z,101466.86
2018-11-22T15:00:34.521Z,101473.07
2018-11-22T15:02:59.631Z,101471.70
2018-11-22T15:05:43.651Z,101466.86
2018-11-22T15:08:08.885Z,101473.30
2018-11-22T15:10:52.936Z,101466.02
2018-11-22T15:13:18.115Z,101471.53
2018-11-22T15:15:43.170Z,101473.63
2018-11-22T15:18:19.971Z,101469.75
2018-11-22T15:20:45.061Z,101471.42
2018-11-22T15:23:10.158Z,101470.55
2018-11-22T15:25:35.244Z,101470.27
2018-11-22T15:28:00.324Z,101463.76
2018-11-22T15:30:26.799Z,101470.56
2018-11-22T15:32:51.906Z,101467.95
2018-11-22T15:35:18.224Z,101464.27
2018-11-22T15:37:43.647Z,101468.86
2018-11-22T15:40:11.181Z,101461.77
2018-11-22T15:42:36.356Z,101467.48
2018-11-22T15:45:01.551Z,101468.75
2018-11-22T15:47:45.802Z,101468.61
2018-11-22T15:50:30.141Z,101463.83
2018-11-22T15:52:55.223Z,101463.36
2018-11-22T15:58:15.935Z,101473.63
2018-11-22T16:00:41.037Z,101478.59
2018-11-22T16:03:06.157Z,101481.14
2018-11-22T16:05:31.758Z,101479.73
2018-11-22T16:07:56.949Z,101476.73
2018-11-22T16:10:26.932Z,101475.97
2018-11-22T16:12:49.562Z,101477.86
2018-11-22T16:15:54.121Z,101481.63
2018-11-22T16:18:19.218Z,101480.59
2018-11-22T16:20:55.495Z,101477.97
2018-11-22T16:23:20.669Z,101479.68
2018-11-22T16:25:45.831Z,101479.94
2018-11-22T16:28:29.968Z,101480.34
2018-11-22T16:30:55.054Z,101485.05
2018-11-22T16:33:20.197Z,101487.95
2018-11-22T16:35:45.291Z,101488.59
2018-11-22T16:38:10.382Z,101486.69
2018-11-22T16:40:35.583Z,101478.16
2018-11-22T16:43:01.975Z,101484.80
2018-11-22T16:45:45.916Z,101486.81
2018-11-22T16:48:12.464Z,101487.22
2018-11-22T16:50:38.730Z,101484.66
2018-11-22T16:53:03.835Z,101482.88
2018-11-22T16:55:29.096Z,101479.21
2018-11-22T17:00:40.296Z,101482.06
2018-11-22T17:03:07.790Z,101478.64
2018-11-22T17:05:51.826Z,101478.19
2018-11-22T17:08:16.964Z,101480.36
2018-11-22T17:10:42.542Z,101476.23
2018-11-22T17:13:07.868Z,101483.11
2018-11-22T17:15:37.540Z,101484.24
2018-11-22T17:18:03.170Z,101485.22
2018-11-22T17:20:29.260Z,101486.81
2018-11-22T17:22:54.795Z,101479.80
2018-11-22T17:25:38.625Z,101478.98
2018-11-22T17:28:22.694Z,101481.91
2018-11-22T17:30:48.272Z,101480.42
2018-11-22T17:33:13.410Z,101481.73
2018-11-22T17:35:38.927Z,101481.81
2018-11-22T17:38:05.190Z,101484.91
2018-11-22T17:43:06.766Z,101487.97
2018-11-22T17:45:36.164Z,101487.54
2018-11-22T17:48:01.373Z,101492.91
2018-11-22T17:50:28.561Z,101493.88
2018-11-22T17:52:53.738Z,101483.92
2018-11-22T17:55:20.454Z,101493.05
2018-11-22T17:57:45.553Z,101487.38
2018-11-22T18:00:39.000Z,101488.13
2018-11-22T18:03:05.021Z,101489.11
2018-11-22T18:05:30.189Z,101457.61
2018-11-22T18:07:55.329Z,101486.09
2018-11-22T18:10:39.136Z,101480.09
2018-11-22T18:13:04.226Z,101475.75
2018-11-22T18:15:30.614Z,101479.45
2018-11-22T18:17:56.368Z,101482.79
2018-11-22T18:25:37.144Z,101486.40
2018-11-22T18:28:02.438Z,101484.08
2018-11-22T18:30:46.532Z,101490.30
2018-11-22T18:33:11.628Z,101487.17
2018-11-22T18:35:36.758Z,101489.66
2018-11-22T18:38:01.832Z,101492.09
2018-11-22T18:40:45.648Z,101492.25
2018-11-22T18:43:10.755Z,101490.30
2018-11-22T18:50:48.807Z,101488.70
2018-11-22T18:53:13.985Z,101492.99
2018-11-22T18:55:39.006Z,101485.02
2018-11-22T18:58:04.107Z,101482.06
2018-11-22T19:00:33.546Z,101491.34
2018-11-22T19:05:55.377Z,101477.58
2018-11-22T19:08:39.436Z,101485.70
2018-11-22T19:11:04.608Z,101480.98
2018-11-22T19:13:29.700Z,101485.62
2018-11-22T19:15:54.766Z,101481.55
2018-11-22T19:18:38.855Z,101477.52
2018-11-22T19:21:03.956Z,101477.95
2018-11-22T19:23:29.108Z,101477.73
2018-11-22T19:26:05.500Z,101481.48
2018-11-22T19:28:30.637Z,101482.63
2018-11-22T19:30:55.762Z,101477.44
2018-11-22T19:33:21.249Z,101484.48
2018-11-22T19:35:48.008Z,101481.59
2018-11-22T19:38:13.142Z,101487.47
2018-11-22T19:40:39.249Z,101483.19
2018-11-22T19:43:05.453Z,101483.28
2018-11-22T19:45:41.463Z,101482.80
2018-11-22T19:48:25.546Z,101482.28
2018-11-22T19:51:09.721Z,101480.91
2018-11-22T19:53:34.857Z,101484.42
2018-11-22T19:56:00.028Z,101480.19
2018-11-22T19:58:25.215Z,101474.27
2018-11-22T20:00:50.356Z,101465.09
2018-11-22T20:03:15.552Z,101475.97
2018-11-22T20:05:41.534Z,101470.56
2018-11-22T20:08:08.370Z,101470.87
2018-11-22T20:10:52.191Z,101475.28
2018-11-22T20:13:17.333Z,101483.50
2018-11-22T20:15:42.489Z,101479.23
2018-11-22T20:18:08.843Z,101482.59
2018-11-22T20:20:33.940Z,101491.52
2018-11-22T20:22:59.198Z,101489.24
2018-11-22T20:25:24.584Z,101484.73
2018-11-22T20:27:50.498Z,101491.06
2018-11-22T20:30:36.829Z,101485.44
2018-11-22T20:33:02.126Z,101488.20
2018-11-22T20:35:27.230Z,101487.30
2018-11-22T20:37:52.827Z,101485.31
2018-11-22T20:40:19.294Z,101491.83
2018-11-22T20:42:44.429Z,101490.72
2018-11-22T20:45:11.632Z,101481.67
2018-11-22T20:47:36.788Z,101487.23
2018-11-22T20:50:01.879Z,101486.18
2018-11-22T20:52:27.051Z,101486.02
2018-11-22T20:54:52.161Z,101487.64
2018-11-22T20:57:17.308Z,101484.17
2018-11-22T20:59:42.419Z,101486.09
2018-11-22T21:02:07.548Z,101483.52
2018-11-22T21:04:32.719Z,101479.17
2018-11-22T21:06:57.898Z,101479.75
2018-11-22T21:09:23.390Z,101488.42
2018-11-22T21:11:48.487Z,101479.61
2018-11-22T21:14:13.612Z,101477.80
2018-11-22T21:16:38.737Z,101480.98
2018-11-22T21:19:22.810Z,101480.84
2018-11-22T21:21:47.945Z,101477.22
2018-11-22T21:26:49.484Z,101485.44
2018-11-22T21:29:14.647Z,101478.43
2018-11-22T21:34:23.957Z,101481.50
2018-11-22T21:36:49.078Z,101488.09
2018-11-22T21:39:14.359Z,101483.73
2018-11-22T21:41:39.434Z,101490.55
2018-11-22T21:44:04.492Z,101483.52
2018-11-22T21:46:48.301Z,101483.65
2018-11-22T21:49:13.402Z,101489.16
2018-11-22T21:54:15.208Z,101493.60
2018-11-22T21:56:40.312Z,101488.37
2018-11-22T21:59:24.448Z,101488.37
2018-11-22T22:01:49.927Z,101491.86
2018-11-22T22:04:14.615Z,101486.91
2018-11-22T22:06:58.684Z,101484.73
2018-11-22T22:09:42.705Z,101482.36
2018-11-22T22:12:07.811Z,101492.50
2018-11-22T22:14:32.964Z,101485.19
2018-11-22T22:16:58.116Z,101483.69
2018-11-22T22:19:23.228Z,101485.20
2018-11-22T22:21:48.292Z,101483.70
2018-11-22T22:24:13.401Z,101483.94
2018-11-22T22:26:38.500Z,101483.65
2018-11-22T22:29:03.649Z,101484.34
2018-11-22T22:34:04.802Z,101480.83
2018-11-22T22:36:29.863Z,101484.66
2018-11-22T22:38:54.934Z,101479.89
2018-11-22T22:41:20.041Z,101485.53
2018-11-22T22:43:45.127Z,101486.03
2018-11-22T22:46:10.316Z,101476.77
2018-11-22T22:48:35.443Z,101479.38
2018-11-22T22:51:00.537Z,101480.67
2018-11-22T22:53:25.616Z,101479.29
2018-11-22T22:55:50.706Z,101483.83
2018-11-22T22:58:15.787Z,101478.25
2018-11-22T23:00:59.581Z,101477.28
2018-11-22T23:03:43.657Z,101474.55
2018-11-22T23:06:27.704Z,101476.21
2018-11-22T23:09:13.268Z,101471.13
2018-11-22T23:11:38.709Z,101479.84
2018-11-22T23:14:03.779Z,101478.34
2018-11-22T23:16:28.858Z,101478.59
2018-11-22T23:18:53.919Z,101478.25
2018-11-22T23:21:19.030Z,101474.53
2018-11-22T23:23:44.155Z,101478.35
2018-11-22T23:26:09.232Z,101478.98
2018-11-22T23:28:34.324Z,101476.86
2018-11-22T23:30:59.382Z,101473.09
2018-11-22T23:33:24.471Z,101474.55
2018-11-22T23:35:49.529Z,101472.35
2018-11-22T23:38:14.640Z,101471.64
2018-11-22T23:40:39.710Z,101468.28
2018-11-22T23:43:04.836Z,101468.39
2018-11-22T23:45:30.989Z,101467.73
2018-11-22T23:47:56.087Z,101465.31
2018-11-22T23:50:22.543Z,101470.17
2018-11-22T23:52:48.839Z,101469.44
2018-11-22T23:55:13.961Z,101465.95
2018-11-22T23:57:39.339Z,101471.61
